WetterOnline ( https://www.wetteronline.de )

Wetter aktuell Bad Salzuflen

Aktuelles Wetter: Bad Salzuflen (139m)

6-stündlich | Neueste Meldungen
Ortszeit Temperatur Wetter
Sa, 19.06. 2:00 22.9° C bewölkt
Fr, 18.06. 20:00 26.9° C leicht bewölkt
Fr, 18.06. 14:00 31.1° C wolkenlos
Fr, 18.06. 8:00 22.3° C wolkenlos
Fr, 18.06. 2:00 22.0° C wolkenlos
Do, 17.06. 20:00 30.2° C wolkenlos
Do, 17.06. 14:00 31.2° C wolkenlos
Do, 17.06. 8:00 23.7° C wolkenlos
Ortszeit Temperatur Wetter
Sa, 19.06. 6:00 21.0° C wolkenlos
Sa, 19.06. 5:50 21.0° C wolkenlos
Sa, 19.06. 5:40 21.0° C wolkenlos
Sa, 19.06. 5:30 20.6° C wolkenlos
Sa, 19.06. 5:20 20.6° C wolkenlos
Sa, 19.06. 5:10 20.7° C fast wolkenlos
Sa, 19.06. 5:00 21.2° C leicht bewölkt
Sa, 19.06. 4:30 21.7° C leicht bewölkt
Sa, 19.06. 4:00 22.6° C wolkig
Sa, 19.06. 3:30 22.1° C wolkig
Sa, 19.06. 3:00 22.8° C wolkig
Sa, 19.06. 2:30 22.7° C wolkig
Ortszeit Relative Feuchte Sichtweite
Sa, 19.06. 2:00 72% 35 km
Fr, 18.06. 20:00 66% 35 km
Fr, 18.06. 14:00 50% 40 km
Fr, 18.06. 8:00 68% 40 km
Fr, 18.06. 2:00 74% 35 km
Do, 17.06. 20:00 39% >70 km
Do, 17.06. 14:00 38% 55 km
Do, 17.06. 8:00 62% 30 km
Ortszeit Relative Feuchte Sichtweite
Sa, 19.06. 6:00 80% 30 km
Sa, 19.06. 5:50 80% -
Sa, 19.06. 5:40 80% -
Sa, 19.06. 5:30 84% 25 km
Sa, 19.06. 5:20 84% -
Sa, 19.06. 5:10 84% -
Sa, 19.06. 5:00 80% 29 km
Sa, 19.06. 4:30 76% 30 km
Sa, 19.06. 4:00 72% 35 km
Sa, 19.06. 3:30 74% 30 km
Sa, 19.06. 3:00 71% 35 km
Sa, 19.06. 2:30 73% 40 km
Ortszeit Niederschlagsmenge Niederschlagsart
Sa, 19.06. 2:00 0.1 l/m2 in 6 Std. Regen
Fr, 18.06. 20:00 0.1 l/m2 in 12 Std. Regen
Fr, 18.06. 14:00 0.1 l/m2 in 6 Std. Niederschlag
Fr, 18.06. 8:00 0.0 l/m2 in 12 Std. -
Fr, 18.06. 2:00 0.0 l/m2 in 6 Std. -
Do, 17.06. 20:00 0.0 l/m2 in 12 Std. -
Do, 17.06. 14:00 0.0 l/m2 in 6 Std. -
Do, 17.06. 8:00 0.0 l/m2 in 12 Std. -
Ortszeit Niederschlagsmenge Niederschlagsart
Sa, 19.06. 6:00 0.0 l/m2 in 1 Std. -
Sa, 19.06. 5:50 keine Meldung -
Sa, 19.06. 5:40 keine Meldung -
Sa, 19.06. 5:30 0.0 l/m2 in 1 Std. -
Sa, 19.06. 5:20 keine Meldung -
Sa, 19.06. 5:10 keine Meldung -
Sa, 19.06. 5:00 0.0 l/m2 in 1 Std. -
Sa, 19.06. 4:30 0.0 l/m2 in 1 Std. -
Sa, 19.06. 4:00 0.0 l/m2 in 1 Std. -
Sa, 19.06. 3:30 0.0 l/m2 in 1 Std. -
Sa, 19.06. 3:00 0.0 l/m2 in 1 Std. -
Sa, 19.06. 2:30 0.0 l/m2 in 1 Std. -
Ortszeit Stärke Spitze Richtung
km/h Bft. km/h Grad Sektor
Sa, 19.06. 2:00 4 1 18 250° W
Fr, 18.06. 20:00 4 1 18 180° S
Fr, 18.06. 14:00 7 2 18 300° NW
Fr, 18.06. 8:00 4 1 18 30° NO
Fr, 18.06. 2:00 9 2 22 10° N
Do, 17.06. 20:00 9 2 33 140° SO
Do, 17.06. 14:00 17 3 35 140° SO
Do, 17.06. 8:00 7 2 29 150° SO
Ortszeit Stärke Spitze Richtung
km/h Bft. km/h Grad Sektor
Sa, 19.06. 6:00 7 2 11 240° SW
Sa, 19.06. 5:50 7 2 - 240° SW
Sa, 19.06. 5:40 7 2 - 240° SW
Sa, 19.06. 5:30 7 2 11 230° SW
Sa, 19.06. 5:20 7 2 - 230° SW
Sa, 19.06. 5:10 7 2 - 220° SW
Sa, 19.06. 5:00 7 2 14 220° SW
Sa, 19.06. 4:30 7 2 11 220° SW
Sa, 19.06. 4:00 7 2 11 210° SW
Sa, 19.06. 3:30 4 1 11 220° SW
Sa, 19.06. 3:00 6 1 9 230° SW
Sa, 19.06. 2:30 4 1 11 220° SW
Ortszeit Untergrenze Bedeckung Gattung
total tief tief mittel hoch
Sa, 19.06. 2:00 2100 m 8/8 4/8 - - -
Fr, 18.06. 20:00 3900 m 4/8 4/8 - - -
Fr, 18.06. 14:00 - 0/8 0/8 - - -
Fr, 18.06. 8:00 - 0/8 0/8 - - -
Fr, 18.06. 2:00 - 0/8 0/8 - - -
Do, 17.06. 20:00 - 0/8 0/8 - - -
Do, 17.06. 14:00 - 0/8 0/8 - - -
Do, 17.06. 8:00 - 0/8 0/8 - - -
Ortszeit Bedeckungsgrad in Achtel und Wolkenuntergrenze
Sa, 19.06. 6:00 keine Wolken
Sa, 19.06. 5:50 keine Wolken
Sa, 19.06. 5:40 keine Wolken
Sa, 19.06. 5:30 keine Wolken
Sa, 19.06. 5:20 keine Wolken
Sa, 19.06. 5:10 1(2400m)
Sa, 19.06. 5:00 4(2400m)
Sa, 19.06. 4:30 2(2400m) 4(2700m)
Sa, 19.06. 4:00 6(2400m) 6(10500m)
Sa, 19.06. 3:30 2(2100m) 8(9000m) 8(10500m)
Sa, 19.06. 3:00 8(9000m)
Sa, 19.06. 2:30 2(2100m) 8(9000m) 8(10500m)
Ortszeit Luftdruck NN (hPa) Tendenz (hPa in 3 Std.)
Sa, 19.06. 2:00 1012 + 0,5
Fr, 18.06. 20:00 1011 - 0,6
Fr, 18.06. 14:00 1012 0,0
Fr, 18.06. 8:00 1013 + 0,4
Fr, 18.06. 2:00 1014 + 1,9
Do, 17.06. 20:00 1011 0,0
Do, 17.06. 14:00 1011 - 0,6
Do, 17.06. 8:00 1012 + 0,3
Ortszeit Luftdruck NN (hPa) Tendenz (hPa in 3 Std.)
Sa, 19.06. 6:00 1013 + 0,7
Sa, 19.06. 5:50 1013 keine Meldung
Sa, 19.06. 5:40 1013 keine Meldung
Sa, 19.06. 5:30 1013 + 1,0
Sa, 19.06. 5:20 1013 keine Meldung
Sa, 19.06. 5:10 1013 keine Meldung
Sa, 19.06. 5:00 1013 + 1,0
Sa, 19.06. 4:30 1013 + 0,7
Sa, 19.06. 4:00 1013 + 0,5
Sa, 19.06. 3:30 1013 + 0,4
Sa, 19.06. 3:00 1012 + 0,6
Sa, 19.06. 2:30 1012 + 0,6
Ortszeit Schneehöhe (cm)
Sa, 19.06. 2:00 -
Fr, 18.06. 20:00 -
Fr, 18.06. 14:00 -
Fr, 18.06. 8:00 -
Fr, 18.06. 2:00 -
Do, 17.06. 20:00 -
Do, 17.06. 14:00 -
Do, 17.06. 8:00 -
Ortszeit Schneehöhe (cm)
Sa, 19.06. 6:00 -
Sa, 19.06. 5:50 -
Sa, 19.06. 5:40 -
Sa, 19.06. 5:30 -
Sa, 19.06. 5:20 -
Sa, 19.06. 5:10 -
Sa, 19.06. 5:00 -
Sa, 19.06. 4:30 -
Sa, 19.06. 4:00 -
Sa, 19.06. 3:30 -
Sa, 19.06. 3:00 -
Sa, 19.06. 2:30 -
Link zu dieser Seite / Seite empfehlen

Das Wetter in ...